createdAt,value
2018-12-23T00:00:54.454Z,1012.16
2018-12-23T00:01:54.434Z,1012.16
2018-12-23T00:02:54.413Z,1012.20
2018-12-23T00:03:54.403Z,1012.23
2018-12-23T00:04:54.378Z,1012.26
2018-12-23T00:05:54.359Z,1012.28
2018-12-23T00:06:54.333Z,1012.34
2018-12-23T00:07:54.314Z,1012.29
2018-12-23T00:08:54.292Z,1012.31
2018-12-23T00:09:54.274Z,1012.30
2018-12-23T00:10:54.262Z,1012.36
2018-12-23T00:11:54.239Z,1012.38
2018-12-23T00:12:54.214Z,1012.39
2018-12-23T00:13:54.193Z,1012.42
2018-12-23T00:14:54.177Z,1012.45
2018-12-23T00:15:54.360Z,1012.43
2018-12-23T00:16:54.137Z,1012.41
2018-12-23T00:17:54.113Z,1012.42
2018-12-23T00:18:54.091Z,1012.46
2018-12-23T00:19:54.071Z,1012.41
2018-12-23T00:20:54.051Z,1012.42
2018-12-23T00:21:54.038Z,1012.38
2018-12-23T00:22:54.011Z,1012.41
2018-12-23T00:23:53.992Z,1012.36
2018-12-23T00:24:53.972Z,1012.35
2018-12-23T00:25:53.956Z,1012.36
2018-12-23T00:26:53.947Z,1012.37
2018-12-23T00:27:53.929Z,1012.41
2018-12-23T00:28:53.889Z,1012.43
2018-12-23T00:29:53.870Z,1012.45
2018-12-23T00:30:53.853Z,1012.50
2018-12-23T00:31:53.831Z,1012.48
2018-12-23T00:32:53.813Z,1012.48
2018-12-23T00:33:53.794Z,1012.53
2018-12-23T00:34:53.768Z,1012.52
2018-12-23T00:35:53.758Z,1012.48
2018-12-23T00:36:53.729Z,1012.51
2018-12-23T00:37:53.710Z,1012.50
2018-12-23T00:38:53.688Z,1012.50
2018-12-23T00:39:53.668Z,1012.54
2018-12-23T00:40:53.648Z,1012.48
2018-12-23T00:41:53.634Z,1012.49
2018-12-23T00:42:53.612Z,1012.52
2018-12-23T00:43:53.588Z,1012.51
2018-12-23T00:44:53.568Z,1012.54
2018-12-23T00:45:53.550Z,1012.52
2018-12-23T00:46:53.528Z,1012.58
2018-12-23T00:47:53.508Z,1012.55
2018-12-23T00:48:53.489Z,1012.57
2018-12-23T00:49:53.465Z,1012.64
2018-12-23T00:50:53.449Z,1012.60
2018-12-23T00:51:53.428Z,1012.59
2018-12-23T00:52:53.407Z,1012.60
2018-12-23T00:53:53.392Z,1012.61
2018-12-23T00:54:53.365Z,1012.61
2018-12-23T00:55:53.348Z,1012.64
2018-12-23T00:56:53.332Z,1012.59
2018-12-23T00:57:53.305Z,1012.60
2018-12-23T00:58:53.286Z,1012.58
2018-12-23T00:59:53.267Z,1012.54
2018-12-23T01:00:53.252Z,1012.57
2018-12-23T01:01:53.229Z,1012.63
2018-12-23T01:02:53.209Z,1012.62
2018-12-23T01:03:53.185Z,1012.62
2018-12-23T01:04:53.165Z,1012.63
2018-12-23T01:05:53.144Z,1012.63
2018-12-23T01:06:53.123Z,1012.67
2018-12-23T01:07:53.108Z,1012.68
2018-12-23T01:08:53.083Z,1012.66
2018-12-23T01:09:53.065Z,1012.69
2018-12-23T01:10:53.048Z,1012.71
2018-12-23T01:11:53.030Z,1012.69
2018-12-23T01:12:53.002Z,1012.69
2018-12-23T01:13:52.990Z,1012.68
2018-12-23T01:14:52.964Z,1012.68
2018-12-23T01:15:52.944Z,1012.66
2018-12-23T01:16:52.925Z,1012.66
2018-12-23T01:17:52.912Z,1012.65
2018-12-23T01:18:52.883Z,1012.67
2018-12-23T01:19:52.868Z,1012.70
2018-12-23T01:20:52.842Z,1012.67
2018-12-23T01:21:52.841Z,1012.59
2018-12-23T01:22:52.805Z,1012.59
2018-12-23T01:23:52.783Z,1012.63
2018-12-23T01:24:52.766Z,1012.66
2018-12-23T01:25:52.748Z,1012.69
2018-12-23T01:26:52.721Z,1012.66
2018-12-23T01:27:52.705Z,1012.62
2018-12-23T01:28:52.682Z,1012.71
2018-12-23T01:29:52.670Z,1012.72
2018-12-23T01:30:52.643Z,1012.73
2018-12-23T01:31:52.621Z,1012.73
2018-12-23T01:32:52.612Z,1012.77
2018-12-23T01:33:52.589Z,1012.70
2018-12-23T01:34:52.562Z,1012.72
2018-12-23T01:35:52.545Z,1012.74
2018-12-23T01:36:52.525Z,1012.71
2018-12-23T01:37:52.496Z,1012.74
2018-12-23T01:38:52.482Z,1012.79
2018-12-23T01:39:52.458Z,1012.78
2018-12-23T01:40:52.440Z,1012.77
2018-12-23T01:41:52.425Z,1012.84
2018-12-23T01:42:52.397Z,1012.79
2018-12-23T01:43:52.378Z,1012.83
2018-12-23T01:44:52.359Z,1012.83
2018-12-23T01:45:52.337Z,1012.85
2018-12-23T01:46:52.325Z,1012.86
2018-12-23T01:47:52.299Z,1012.87
2018-12-23T01:48:52.276Z,1012.88
2018-12-23T01:49:52.257Z,1012.90
2018-12-23T01:50:52.236Z,1012.88
2018-12-23T01:51:52.215Z,1012.92
2018-12-23T01:52:52.199Z,1012.97
2018-12-23T01:53:52.180Z,1012.97
2018-12-23T01:54:52.155Z,1012.98
2018-12-23T01:55:52.133Z,1012.97
2018-12-23T01:56:52.126Z,1012.97
2018-12-23T01:57:52.096Z,1012.99
2018-12-23T01:58:52.073Z,1012.95
2018-12-23T01:59:52.054Z,1012.94
2018-12-23T02:00:52.041Z,1012.94
2018-12-23T02:01:52.011Z,1012.94
2018-12-23T02:02:51.995Z,1012.89
2018-12-23T02:03:51.972Z,1012.92
2018-12-23T02:04:51.963Z,1012.93
2018-12-23T02:05:51.934Z,1012.93
2018-12-23T02:06:51.916Z,1012.96
2018-12-23T02:07:51.897Z,1012.92
2018-12-23T02:08:51.871Z,1012.93
2018-12-23T02:09:51.854Z,1012.92
2018-12-23T02:10:51.831Z,1013.00
2018-12-23T02:11:51.812Z,1013.02
2018-12-23T02:12:51.795Z,1013.01
2018-12-23T02:13:51.771Z,1013.00
2018-12-23T02:14:51.755Z,1013.03
2018-12-23T02:15:51.731Z,1013.11
2018-12-23T02:16:51.712Z,1013.05
2018-12-23T02:17:51.697Z,1013.08
2018-12-23T02:18:51.671Z,1013.04
2018-12-23T02:19:51.651Z,1013.04
2018-12-23T02:20:51.629Z,1013.03
2018-12-23T02:21:51.611Z,1012.99
2018-12-23T02:22:51.591Z,1012.99
2018-12-23T02:23:51.570Z,1013.04
2018-12-23T02:24:51.549Z,1013.02
2018-12-23T02:25:51.529Z,1013.06
2018-12-23T02:26:51.509Z,1013.00
2018-12-23T02:27:51.490Z,1013.03
2018-12-23T02:28:51.473Z,1013.04
2018-12-23T02:29:51.448Z,1012.99
2018-12-23T02:30:51.428Z,1013.00
2018-12-23T02:31:51.409Z,1012.99
2018-12-23T02:32:51.389Z,1013.02
2018-12-23T02:33:51.369Z,1013.00
2018-12-23T02:34:51.349Z,1013.00
2018-12-23T02:35:55.448Z,1013.03
2018-12-23T02:36:51.306Z,1013.06
2018-12-23T02:37:51.286Z,1013.04
2018-12-23T02:38:51.272Z,1013.04
2018-12-23T02:39:51.248Z,1013.12
2018-12-23T02:40:51.227Z,1013.08
2018-12-23T02:41:51.204Z,1013.07
2018-12-23T02:42:51.186Z,1013.12
2018-12-23T02:43:51.169Z,1013.07
2018-12-23T02:44:51.150Z,1013.13
2018-12-23T02:45:51.133Z,1013.12
2018-12-23T02:46:51.108Z,1013.09
2018-12-23T02:47:51.086Z,1013.09
2018-12-23T02:48:51.089Z,1013.06
2018-12-23T02:49:51.044Z,1013.16
2018-12-23T02:50:51.028Z,1013.13
2018-12-23T02:51:51.059Z,1013.10
2018-12-23T02:52:50.988Z,1013.16
2018-12-23T02:53:50.961Z,1013.21
2018-12-23T02:54:50.943Z,1013.19
2018-12-23T02:55:50.931Z,1013.16
2018-12-23T02:56:50.903Z,1013.19
2018-12-23T02:57:50.881Z,1013.18
2018-12-23T02:58:50.863Z,1013.17
2018-12-23T02:59:50.842Z,1013.20
2018-12-23T03:00:50.823Z,1013.21
2018-12-23T03:01:50.801Z,1013.20
2018-12-23T03:02:50.782Z,1013.20
2018-12-23T03:03:50.760Z,1013.13
2018-12-23T03:04:50.746Z,1013.18
2018-12-23T03:05:50.721Z,1013.19
2018-12-23T03:06:50.701Z,1013.12
2018-12-23T03:07:50.681Z,1013.20
2018-12-23T03:08:50.663Z,1013.15
2018-12-23T03:09:50.639Z,1013.15
2018-12-23T03:10:50.618Z,1013.16
2018-12-23T03:11:50.598Z,1013.22
2018-12-23T03:12:50.578Z,1013.17
2018-12-23T03:13:50.560Z,1013.14
2018-12-23T03:14:50.539Z,1013.14
2018-12-23T03:15:50.520Z,1013.13
2018-12-23T03:16:50.496Z,1013.15
2018-12-23T03:17:50.480Z,1013.11
2018-12-23T03:18:50.464Z,1013.08
2018-12-23T03:19:50.441Z,1013.06
2018-12-23T03:20:50.417Z,1013.02
2018-12-23T03:21:50.404Z,1013.02
2018-12-23T03:22:50.386Z,1013.02
2018-12-23T03:23:50.363Z,1013.00
2018-12-23T03:24:50.339Z,1013.04
2018-12-23T03:25:50.318Z,1013.02
2018-12-23T03:26:50.297Z,1012.98
2018-12-23T03:27:50.279Z,1012.95
2018-12-23T03:28:50.258Z,1012.92
2018-12-23T03:29:50.232Z,1012.97
2018-12-23T03:30:50.219Z,1013.02
2018-12-23T03:31:50.209Z,1013.03
2018-12-23T03:32:50.177Z,1013.05
2018-12-23T03:33:50.167Z,1013.01
2018-12-23T03:34:50.133Z,1013.04
2018-12-23T03:35:50.114Z,1012.99
2018-12-23T03:36:50.092Z,1013.01
2018-12-23T03:37:50.073Z,1012.99
2018-12-23T03:38:50.062Z,1013.02
2018-12-23T03:39:50.030Z,1012.98
2018-12-23T03:40:50.010Z,1012.97
2018-12-23T03:41:49.992Z,1012.96
2018-12-23T03:42:49.971Z,1012.94
2018-12-23T03:43:49.951Z,1012.99
2018-12-23T03:44:49.931Z,1013.03
2018-12-23T03:45:49.909Z,1013.01
2018-12-23T03:46:49.897Z,1013.07
2018-12-23T03:47:49.998Z,1013.06
2018-12-23T03:48:49.871Z,1013.05
2018-12-23T03:49:49.828Z,1013.06
2018-12-23T03:50:49.808Z,1013.05
2018-12-23T03:51:49.788Z,1013.07
2018-12-23T03:52:49.776Z,1013.09
2018-12-23T03:53:49.746Z,1013.09
2018-12-23T03:54:49.723Z,1013.06
2018-12-23T03:55:49.704Z,1013.09
2018-12-23T03:56:49.687Z,1013.08
2018-12-23T03:57:49.664Z,1013.11
2018-12-23T03:58:49.646Z,1013.11
2018-12-23T03:59:49.625Z,1013.14
2018-12-23T04:00:49.608Z,1013.11
2018-12-23T04:01:49.582Z,1013.04
2018-12-23T04:02:49.570Z,1013.03
2018-12-23T04:03:49.551Z,1013.02
2018-12-23T04:04:49.526Z,1012.98
2018-12-23T04:05:49.502Z,1013.01
2018-12-23T04:06:49.481Z,1012.98
2018-12-23T04:07:49.460Z,1012.97
2018-12-23T04:08:49.445Z,1012.98
2018-12-23T04:09:49.419Z,1012.93
2018-12-23T04:10:49.400Z,1012.93
2018-12-23T04:11:49.379Z,1012.93
2018-12-23T04:12:49.357Z,1012.85
2018-12-23T04:13:49.342Z,1012.92
2018-12-23T04:14:49.320Z,1012.92
2018-12-23T04:15:49.295Z,1012.87
2018-12-23T04:16:49.274Z,1012.91
2018-12-23T04:17:49.257Z,1012.89
2018-12-23T04:18:49.236Z,1012.94
2018-12-23T04:19:49.216Z,1012.94
2018-12-23T04:20:49.199Z,1012.89
2018-12-23T04:21:49.177Z,1012.85
2018-12-23T04:22:49.161Z,1012.78
2018-12-23T04:23:49.135Z,1012.81
2018-12-23T04:24:49.113Z,1012.78
2018-12-23T04:25:49.093Z,1012.71
2018-12-23T04:26:49.080Z,1012.72
2018-12-23T04:27:49.052Z,1012.75
2018-12-23T04:28:49.034Z,1012.72
2018-12-23T04:29:49.012Z,1012.72
2018-12-23T04:30:48.993Z,1012.74
2018-12-23T04:31:48.970Z,1012.70
2018-12-23T04:32:48.953Z,1012.69
2018-12-23T04:33:48.932Z,1012.68
2018-12-23T04:34:48.927Z,1012.67
2018-12-23T04:35:48.891Z,1012.71
2018-12-23T04:36:48.869Z,1012.65
2018-12-23T04:37:48.849Z,1012.67
2018-12-23T04:38:48.827Z,1012.64
2018-12-23T04:39:48.815Z,1012.69
2018-12-23T04:40:48.798Z,1012.67
2018-12-23T04:41:48.769Z,1012.71
2018-12-23T04:42:48.753Z,1012.67
2018-12-23T04:43:48.729Z,1012.66
2018-12-23T04:44:48.704Z,1012.66
2018-12-23T04:45:48.691Z,1012.63
2018-12-23T04:46:48.673Z,1012.69
2018-12-23T04:47:48.647Z,1012.67
2018-12-23T04:48:48.627Z,1012.64
2018-12-23T04:49:48.603Z,1012.63
2018-12-23T04:50:48.587Z,1012.61
2018-12-23T04:51:48.573Z,1012.70
2018-12-23T04:52:48.546Z,1012.66
2018-12-23T04:53:48.527Z,1012.66
2018-12-23T04:54:48.501Z,1012.67
2018-12-23T04:55:48.484Z,1012.67
2018-12-23T04:56:48.462Z,1012.59
2018-12-23T04:57:48.440Z,1012.64
2018-12-23T04:58:48.432Z,1012.62
2018-12-23T04:59:48.400Z,1012.62
2018-12-23T05:00:48.379Z,1012.68
2018-12-23T05:01:48.363Z,1012.70
2018-12-23T05:02:48.338Z,1012.71
2018-12-23T05:03:48.326Z,1012.68
2018-12-23T05:04:48.298Z,1012.65
2018-12-23T05:05:48.277Z,1012.57
2018-12-23T05:06:48.265Z,1012.63
2018-12-23T05:07:48.237Z,1012.61
2018-12-23T05:08:48.216Z,1012.56
2018-12-23T05:09:48.200Z,1012.56
2018-12-23T05:10:48.175Z,1012.63
2018-12-23T05:11:48.170Z,1012.54
2018-12-23T05:12:48.135Z,1012.54
2018-12-23T05:13:48.118Z,1012.53
2018-12-23T05:14:48.105Z,1012.52
2018-12-23T05:15:48.076Z,1012.50
2018-12-23T05:16:48.055Z,1012.52
2018-12-23T05:17:48.034Z,1012.53
2018-12-23T05:18:48.015Z,1012.55
2018-12-23T05:19:48.132Z,1012.52
2018-12-23T05:20:47.978Z,1012.51
2018-12-23T05:21:47.960Z,1012.55
2018-12-23T05:22:47.967Z,1012.53
2018-12-23T05:23:47.917Z,1012.55
2018-12-23T05:24:47.895Z,1012.50
2018-12-23T05:25:47.872Z,1012.55
2018-12-23T05:26:47.852Z,1012.51
2018-12-23T05:27:47.834Z,1012.53
2018-12-23T05:28:47.812Z,1012.50
2018-12-23T05:29:47.793Z,1012.50
2018-12-23T05:30:47.771Z,1012.45
2018-12-23T05:31:47.750Z,1012.48
2018-12-23T05:32:47.732Z,1012.46
2018-12-23T05:33:47.708Z,1012.49
2018-12-23T05:34:47.695Z,1012.51
2018-12-23T05:35:47.668Z,1012.51
2018-12-23T05:36:52.349Z,1012.54
2018-12-23T05:37:47.625Z,1012.55
2018-12-23T05:38:47.612Z,1012.53
2018-12-23T05:39:47.590Z,1012.49
2018-12-23T05:40:47.566Z,1012.51
2018-12-23T05:41:47.545Z,1012.52
2018-12-23T05:42:47.526Z,1012.57
2018-12-23T05:43:47.507Z,1012.58
2018-12-23T05:44:47.487Z,1012.64
2018-12-23T05:45:47.466Z,1012.60
2018-12-23T05:46:47.444Z,1012.60
2018-12-23T05:47:47.425Z,1012.62
2018-12-23T05:48:47.404Z,1012.60
2018-12-23T05:49:47.382Z,1012.56
2018-12-23T05:50:47.363Z,1012.59
2018-12-23T05:51:47.348Z,1012.59
2018-12-23T05:52:47.320Z,1012.56
2018-12-23T05:53:47.299Z,1012.62
2018-12-23T05:54:47.280Z,1012.56
2018-12-23T05:55:47.263Z,1012.63
2018-12-23T05:56:47.242Z,1012.56
2018-12-23T05:57:47.219Z,1012.64
2018-12-23T05:58:47.198Z,1012.65
2018-12-23T05:59:47.183Z,1012.65
2018-12-23T06:00:47.156Z,1012.70
2018-12-23T06:01:47.139Z,1012.73
2018-12-23T06:02:47.121Z,1012.69
2018-12-23T06:03:47.101Z,1012.65
2018-12-23T06:04:47.084Z,1012.68
2018-12-23T06:05:47.056Z,1012.69
2018-12-23T06:06:47.040Z,1012.70
2018-12-23T06:07:47.014Z,1012.70
2018-12-23T06:08:46.993Z,1012.69
2018-12-23T06:09:46.985Z,1012.67
2018-12-23T06:10:46.957Z,1012.68
2018-12-23T06:11:46.934Z,1012.72
2018-12-23T06:12:46.918Z,1012.69
2018-12-23T06:13:46.891Z,1012.70
2018-12-23T06:14:46.873Z,1012.73
2018-12-23T06:15:46.853Z,1012.81
2018-12-23T06:16:46.834Z,1012.73
2018-12-23T06:17:46.817Z,1012.80
2018-12-23T06:18:46.801Z,1012.83
2018-12-23T06:19:46.773Z,1012.80
2018-12-23T06:20:46.753Z,1012.87
2018-12-23T06:21:46.730Z,1012.83
2018-12-23T06:22:46.714Z,1012.80
2018-12-23T06:23:46.688Z,1012.77
2018-12-23T06:24:46.671Z,1012.84
2018-12-23T06:25:46.678Z,1012.83
2018-12-23T06:26:46.635Z,1012.77
2018-12-23T06:27:46.609Z,1012.81
2018-12-23T06:28:46.587Z,1012.71
2018-12-23T06:29:46.567Z,1012.70
2018-12-23T06:30:46.547Z,1012.75
2018-12-23T06:31:46.525Z,1012.71
2018-12-23T06:32:46.505Z,1012.73
2018-12-23T06:33:46.488Z,1012.77
2018-12-23T06:34:46.466Z,1012.73
2018-12-23T06:35:46.447Z,1012.71
2018-12-23T06:36:46.423Z,1012.73
2018-12-23T06:37:46.403Z,1012.71
2018-12-23T06:38:46.382Z,1012.73
2018-12-23T06:39:46.471Z,1012.78
2018-12-23T06:40:46.344Z,1012.71
2018-12-23T06:41:46.321Z,1012.77
2018-12-23T06:42:46.301Z,1012.74
2018-12-23T06:43:46.282Z,1012.75
2018-12-23T06:44:46.263Z,1012.82
2018-12-23T06:45:46.241Z,1012.74
2018-12-23T06:46:46.222Z,1012.82
2018-12-23T06:47:46.198Z,1012.78
2018-12-23T06:48:46.181Z,1012.77
2018-12-23T06:49:46.156Z,1012.82
2018-12-23T06:50:46.136Z,1012.87
2018-12-23T06:51:46.121Z,1012.85
2018-12-23T06:52:46.104Z,1012.79
2018-12-23T06:53:46.075Z,1012.84
2018-12-23T06:54:46.063Z,1012.89
2018-12-23T06:55:46.036Z,1012.88
2018-12-23T06:56:46.012Z,1012.87
2018-12-23T06:57:46.000Z,1012.87
2018-12-23T06:58:45.973Z,1012.93
2018-12-23T06:59:45.952Z,1012.89
2018-12-23T07:00:45.933Z,1012.90
2018-12-23T07:01:45.913Z,1012.91
2018-12-23T07:02:45.893Z,1012.90
2018-12-23T07:03:45.984Z,1012.93
2018-12-23T07:04:45.853Z,1012.92
2018-12-23T07:05:45.832Z,1012.89
2018-12-23T07:06:45.812Z,1012.90
2018-12-23T07:07:45.790Z,1012.90
2018-12-23T07:08:45.773Z,1012.89
2018-12-23T07:09:45.752Z,1012.92
2018-12-23T07:10:45.737Z,1012.94
2018-12-23T07:11:45.715Z,1012.93
2018-12-23T07:12:45.696Z,1012.87
2018-12-23T07:13:45.668Z,1012.89
2018-12-23T07:14:45.652Z,1012.88
2018-12-23T07:15:45.629Z,1012.88
2018-12-23T07:16:45.609Z,1012.87
2018-12-23T07:17:45.588Z,1012.89
2018-12-23T07:18:45.568Z,1012.88
2018-12-23T07:19:45.548Z,1012.86
2018-12-23T07:20:45.532Z,1012.87
2018-12-23T07:21:45.506Z,1012.86
2018-12-23T07:22:45.490Z,1012.83
2018-12-23T07:23:45.478Z,1012.81
2018-12-23T07:24:45.446Z,1012.86
2018-12-23T07:25:45.437Z,1012.85
2018-12-23T07:26:45.408Z,1012.84
2018-12-23T07:27:45.388Z,1012.89
2018-12-23T07:28:45.369Z,1012.87
2018-12-23T07:29:45.355Z,1012.89
2018-12-23T07:30:45.327Z,1012.90
2018-12-23T07:31:45.303Z,1012.87
2018-12-23T07:32:45.286Z,1012.89
2018-12-23T07:33:45.263Z,1012.86
2018-12-23T07:34:45.245Z,1012.88
2018-12-23T07:35:45.221Z,1012.86
2018-12-23T07:36:49.532Z,1012.89
2018-12-23T07:37:45.180Z,1012.84
2018-12-23T07:38:45.161Z,1012.89
2018-12-23T07:39:45.141Z,1012.88
2018-12-23T07:40:45.120Z,1012.89
2018-12-23T07:41:45.101Z,1012.83
2018-12-23T07:42:45.083Z,1012.85
2018-12-23T07:43:45.060Z,1012.86
2018-12-23T07:44:45.040Z,1012.96
2018-12-23T07:45:45.018Z,1012.89
2018-12-23T07:46:45.003Z,1012.88
2018-12-23T07:47:44.979Z,1012.84
2018-12-23T07:48:44.967Z,1012.87
2018-12-23T07:49:44.942Z,1012.82
2018-12-23T07:50:44.921Z,1012.80
2018-12-23T07:51:44.906Z,1012.80
2018-12-23T07:52:44.884Z,1012.83
2018-12-23T07:53:44.860Z,1012.72
2018-12-23T07:54:44.839Z,1012.73
2018-12-23T07:55:44.819Z,1012.79
2018-12-23T07:56:44.799Z,1012.76
2018-12-23T07:57:44.778Z,1012.78
2018-12-23T07:58:44.757Z,1012.70
2018-12-23T07:59:44.740Z,1012.71
2018-12-23T08:00:44.715Z,1012.68
2018-12-23T08:01:44.701Z,1012.73
2018-12-23T08:02:44.676Z,1012.75
2018-12-23T08:03:44.660Z,1012.75
2018-12-23T08:04:44.646Z,1012.82
2018-12-23T08:05:44.619Z,1012.79
2018-12-23T08:06:44.595Z,1012.78
2018-12-23T08:07:44.580Z,1012.79
2018-12-23T08:08:44.553Z,1012.76
2018-12-23T08:09:44.535Z,1012.74
2018-12-23T08:10:44.516Z,1012.80
2018-12-23T08:11:44.496Z,1012.77
2018-12-23T08:12:44.475Z,1012.76
2018-12-23T08:13:44.459Z,1012.77
2018-12-23T08:14:44.550Z,1012.80
2018-12-23T08:15:44.413Z,1012.81
2018-12-23T08:16:44.395Z,1012.77
2018-12-23T08:17:44.448Z,1012.74
2018-12-23T08:18:44.361Z,1012.74
2018-12-23T08:19:44.333Z,1012.76
2018-12-23T08:20:44.333Z,1012.68
2018-12-23T08:21:44.293Z,1012.75
2018-12-23T08:22:44.269Z,1012.69
2018-12-23T08:23:44.257Z,1012.69
2018-12-23T08:24:44.235Z,1012.64
2018-12-23T08:25:44.210Z,1012.70
2018-12-23T08:26:44.211Z,1012.65
2018-12-23T08:27:44.170Z,1012.68
2018-12-23T08:28:44.150Z,1012.71
2018-12-23T08:29:44.131Z,1012.68
2018-12-23T08:30:44.118Z,1012.64
2018-12-23T08:31:44.090Z,1012.59
2018-12-23T08:32:44.075Z,1012.66
2018-12-23T08:33:44.055Z,1012.64
2018-12-23T08:34:44.038Z,1012.61
2018-12-23T08:35:44.009Z,1012.65
2018-12-23T08:36:43.987Z,1012.73
2018-12-23T08:37:44.677Z,1012.64
2018-12-23T08:38:43.956Z,1012.70
2018-12-23T08:39:43.927Z,1012.62
2018-12-23T08:40:43.908Z,1012.66
2018-12-23T08:41:43.889Z,1012.65
2018-12-23T08:42:43.874Z,1012.69
2018-12-23T08:43:43.850Z,1012.68
2018-12-23T08:44:43.831Z,1012.60
2018-12-23T08:45:43.809Z,1012.70
2018-12-23T08:46:43.789Z,1012.64
2018-12-23T08:47:43.770Z,1012.67
2018-12-23T08:48:43.752Z,1012.64
2018-12-23T08:49:43.732Z,1012.66
2018-12-23T08:50:43.706Z,1012.68
2018-12-23T08:51:45.836Z,1012.66
2018-12-23T08:52:43.782Z,1012.71
2018-12-23T08:53:43.646Z,1012.71
2018-12-23T08:54:43.629Z,1012.66
2018-12-23T08:55:43.603Z,1012.69
2018-12-23T08:56:43.587Z,1012.70
2018-12-23T08:57:43.568Z,1012.66
2018-12-23T08:58:43.544Z,1012.64
2018-12-23T08:59:43.533Z,1012.64
2018-12-23T09:00:43.502Z,1012.62
2018-12-23T09:01:43.485Z,1012.59
2018-12-23T09:02:43.462Z,1012.61
2018-12-23T09:03:43.452Z,1012.57
2018-12-23T09:04:43.421Z,1012.56
2018-12-23T09:05:43.403Z,1012.55
2018-12-23T09:06:43.381Z,1012.57
2018-12-23T09:07:43.365Z,1012.59
2018-12-23T09:08:43.348Z,1012.58
2018-12-23T09:09:43.332Z,1012.64
2018-12-23T09:10:43.305Z,1012.63
2018-12-23T09:11:43.288Z,1012.71
2018-12-23T09:12:43.276Z,1012.70
2018-12-23T09:13:43.254Z,1012.71
2018-12-23T09:14:43.222Z,1012.74
2018-12-23T09:15:43.202Z,1012.70
2018-12-23T09:16:43.183Z,1012.65
2018-12-23T09:17:43.161Z,1012.72
2018-12-23T09:18:43.146Z,1012.73
2018-12-23T09:19:43.122Z,1012.77
2018-12-23T09:20:43.103Z,1012.83
2018-12-23T09:21:43.086Z,1012.77
2018-12-23T09:22:43.072Z,1012.79
2018-12-23T09:23:43.043Z,1012.80
2018-12-23T09:24:43.026Z,1012.75
2018-12-23T09:25:43.007Z,1012.77
2018-12-23T09:26:43.097Z,1012.69
2018-12-23T09:27:42.963Z,1012.77
2018-12-23T09:28:42.937Z,1012.69
2018-12-23T09:29:42.919Z,1012.68
2018-12-23T09:30:42.901Z,1012.66
2018-12-23T09:31:42.879Z,1012.70
2018-12-23T09:32:42.855Z,1012.66
2018-12-23T09:33:42.834Z,1012.65
2018-12-23T09:34:42.818Z,1012.63
2018-12-23T09:35:42.805Z,1012.67
2018-12-23T09:36:42.802Z,1012.66
2018-12-23T09:37:42.755Z,1012.61
2018-12-23T09:38:42.737Z,1012.60
2018-12-23T09:39:42.724Z,1012.60
2018-12-23T09:40:42.695Z,1012.53
2018-12-23T09:41:42.680Z,1012.57
2018-12-23T09:42:42.656Z,1012.54
2018-12-23T09:43:42.636Z,1012.48
2018-12-23T09:44:42.616Z,1012.52
2018-12-23T09:45:42.600Z,1012.43
2018-12-23T09:46:42.577Z,1012.48
2018-12-23T09:47:42.557Z,1012.46
2018-12-23T09:48:42.533Z,1012.45
2018-12-23T09:49:42.513Z,1012.48
2018-12-23T09:50:42.493Z,1012.45
2018-12-23T09:51:42.472Z,1012.47
2018-12-23T09:52:42.457Z,1012.46
2018-12-23T09:53:42.434Z,1012.47
2018-12-23T09:54:42.416Z,1012.43
2018-12-23T09:55:42.391Z,1012.41
2018-12-23T09:56:42.372Z,1012.39
2018-12-23T09:57:42.352Z,1012.38
2018-12-23T09:58:42.336Z,1012.40
2018-12-23T09:59:42.314Z,1012.42
2018-12-23T10:00:42.299Z,1012.38
2018-12-23T10:01:42.273Z,1012.36
2018-12-23T10:02:42.257Z,1012.41
2018-12-23T10:03:42.236Z,1012.39
2018-12-23T10:04:42.214Z,1012.34
2018-12-23T10:05:42.204Z,1012.32
2018-12-23T10:06:42.178Z,1012.33
2018-12-23T10:07:42.155Z,1012.32
2018-12-23T10:08:42.138Z,1012.29
2018-12-23T10:09:42.112Z,1012.27
2018-12-23T10:10:42.104Z,1012.28
2018-12-23T10:11:42.078Z,1012.22
2018-12-23T10:12:42.055Z,1012.21
2018-12-23T10:13:42.033Z,1012.22
2018-12-23T10:14:42.019Z,1012.17
2018-12-23T10:15:42.004Z,1012.19
2018-12-23T10:16:41.976Z,1012.20
2018-12-23T10:17:41.954Z,1012.25
2018-12-23T10:18:41.943Z,1012.22
2018-12-23T10:19:41.917Z,1012.20
2018-12-23T10:20:41.897Z,1012.21
2018-12-23T10:21:41.880Z,1012.24
2018-12-23T10:22:41.857Z,1012.23
2018-12-23T10:23:41.837Z,1012.23
2018-12-23T10:24:41.822Z,1012.23
2018-12-23T10:25:41.796Z,1012.26
2018-12-23T10:26:41.778Z,1012.23
2018-12-23T10:27:41.756Z,1012.25
2018-12-23T10:28:41.735Z,1012.26
2018-12-23T10:29:41.717Z,1012.29
2018-12-23T10:30:41.697Z,1012.27
2018-12-23T10:31:41.692Z,1012.23
2018-12-23T10:32:41.667Z,1012.20
2018-12-23T10:33:41.643Z,1012.14
2018-12-23T10:34:41.625Z,1012.13
2018-12-23T10:35:41.602Z,1012.10
2018-12-23T10:36:41.575Z,1012.07
2018-12-23T10:37:41.564Z,1012.02
2018-12-23T10:38:41.545Z,1011.99
2018-12-23T10:39:41.518Z,1012.00
2018-12-23T10:40:41.514Z,1012.00
2018-12-23T10:41:41.477Z,1012.01
2018-12-23T10:42:41.464Z,1011.97
2018-12-23T10:43:41.440Z,1011.95
2018-12-23T10:44:41.419Z,1011.93
2018-12-23T10:45:41.400Z,1011.94
2018-12-23T10:46:41.381Z,1011.89
2018-12-23T10:47:41.746Z,1011.91
2018-12-23T10:48:41.341Z,1011.92
2018-12-23T10:49:41.324Z,1011.92
2018-12-23T10:50:41.300Z,1011.90
2018-12-23T10:51:41.284Z,1011.88
2018-12-23T10:52:41.262Z,1011.86
2018-12-23T10:53:41.254Z,1011.81
2018-12-23T10:54:41.225Z,1011.79
2018-12-23T10:55:41.213Z,1011.78
2018-12-23T10:56:41.184Z,1011.78
2018-12-23T10:57:41.171Z,1011.79
2018-12-23T10:58:41.142Z,1011.74
2018-12-23T10:59:41.126Z,1011.70
2018-12-23T11:00:41.110Z,1011.70
2018-12-23T11:01:41.087Z,1011.66
2018-12-23T11:02:41.065Z,1011.64
2018-12-23T11:03:41.047Z,1011.61
2018-12-23T11:04:41.043Z,1011.56
2018-12-23T11:05:41.012Z,1011.56
2018-12-23T11:06:40.988Z,1011.50
2018-12-23T11:07:40.977Z,1011.50
2018-12-23T11:08:40.950Z,1011.49
2018-12-23T11:09:40.935Z,1011.51
2018-12-23T11:10:40.916Z,1011.46
2018-12-23T11:11:40.893Z,1011.43
2018-12-23T11:12:40.874Z,1011.42
2018-12-23T11:13:40.937Z,1011.38
2018-12-23T11:14:40.838Z,1011.37
2018-12-23T11:15:40.821Z,1011.34
2018-12-23T11:16:40.825Z,1011.36
2018-12-23T11:17:40.775Z,1011.33
2018-12-23T11:18:40.759Z,1011.33
2018-12-23T11:19:40.747Z,1011.33
2018-12-23T11:20:40.720Z,1011.25
2018-12-23T11:21:40.700Z,1011.28
2018-12-23T11:22:40.679Z,1011.28
2018-12-23T11:23:40.662Z,1011.28
2018-12-23T11:24:40.647Z,1011.27
2018-12-23T11:25:40.621Z,1011.25
2018-12-23T11:26:40.604Z,1011.22
2018-12-23T11:27:40.596Z,1011.21
2018-12-23T11:28:40.568Z,1011.22
2018-12-23T11:29:40.546Z,1011.26
2018-12-23T11:30:40.530Z,1011.26
2018-12-23T11:31:40.511Z,1011.27
2018-12-23T11:32:40.487Z,1011.24
2018-12-23T11:33:40.463Z,1011.17
2018-12-23T11:34:40.448Z,1011.07
2018-12-23T11:35:40.427Z,1011.09
2018-12-23T11:36:40.406Z,1011.09
2018-12-23T11:37:40.386Z,1011.08
2018-12-23T11:38:40.368Z,1011.05
2018-12-23T11:39:40.348Z,1011.07
2018-12-23T11:40:40.336Z,1011.07
2018-12-23T11:41:40.335Z,1010.99
2018-12-23T11:42:40.292Z,1010.98
2018-12-23T11:43:40.270Z,1010.98
2018-12-23T11:44:40.260Z,1010.95
2018-12-23T11:45:40.229Z,1010.93
2018-12-23T11:46:40.216Z,1010.91
2018-12-23T11:47:40.205Z,1010.88
2018-12-23T11:48:40.174Z,1010.87
2018-12-23T11:49:40.158Z,1010.91
2018-12-23T11:50:40.133Z,1010.82
2018-12-23T11:51:40.113Z,1010.79
2018-12-23T11:52:40.098Z,1010.78
2018-12-23T11:53:40.075Z,1010.83
2018-12-23T11:54:40.061Z,1010.77
2018-12-23T11:55:40.036Z,1010.76
2018-12-23T11:56:40.022Z,1010.73
2018-12-23T11:57:40.007Z,1010.69
2018-12-23T11:58:40.061Z,1010.69
2018-12-23T11:59:39.959Z,1010.66
2018-12-23T12:00:39.945Z,1010.63
2018-12-23T12:01:39.930Z,1010.60
2018-12-23T12:02:39.899Z,1010.52
2018-12-23T12:03:39.879Z,1010.50
2018-12-23T12:04:39.868Z,1010.51
2018-12-23T12:05:39.841Z,1010.53